createdAt,value
2022-12-01T00:02:10.356Z,6.30
2022-12-01T00:05:13.384Z,6.20
2022-12-01T00:08:16.341Z,6.20
2022-12-01T00:11:18.320Z,6.30
2022-12-01T00:14:22.688Z,6.20
2022-12-01T00:17:25.721Z,6.20
2022-12-01T00:20:29.040Z,6.30
2022-12-01T00:23:32.001Z,6.30
2022-12-01T00:26:34.904Z,6.20
2022-12-01T00:29:39.234Z,6.30
2022-12-01T00:32:42.186Z,6.20
2022-12-01T00:35:45.163Z,6.10
2022-12-01T00:38:48.323Z,6.00
2022-12-01T00:41:51.305Z,5.90
2022-12-01T00:44:55.603Z,6.00
2022-12-01T00:47:58.559Z,6.00
2022-12-01T00:51:01.589Z,6.00
2022-12-01T00:54:04.693Z,5.90
2022-12-01T00:57:08.193Z,6.00
2022-12-01T01:00:14.731Z,6.10
2022-12-01T01:03:17.724Z,6.10
2022-12-01T01:06:20.689Z,6.10
2022-12-01T01:09:23.883Z,6.10
2022-12-01T01:12:27.931Z,6.10
2022-12-01T01:15:32.217Z,6.10
2022-12-01T01:18:35.563Z,6.00
2022-12-01T01:21:39.451Z,6.00
2022-12-01T01:24:42.438Z,6.00
2022-12-01T01:27:45.364Z,6.10
2022-12-01T01:30:49.675Z,6.20
2022-12-01T01:33:53.047Z,6.10
2022-12-01T01:36:55.989Z,6.10
2022-12-01T01:39:58.946Z,5.90
2022-12-01T01:43:01.908Z,5.80
2022-12-01T01:46:06.606Z,5.90
2022-12-01T01:49:12.666Z,6.00
2022-12-01T01:52:16.611Z,6.00
2022-12-01T01:55:20.421Z,6.10
2022-12-01T01:58:24.244Z,6.10
2022-12-01T02:01:28.542Z,6.00
2022-12-01T02:04:31.694Z,6.00
2022-12-01T02:07:34.768Z,6.00
2022-12-01T02:10:51.568Z,6.00
2022-12-01T02:14:03.064Z,6.10
2022-12-01T02:17:18.637Z,6.00
2022-12-01T02:20:45.846Z,6.10
2022-12-01T02:24:24.091Z,6.00
2022-12-01T02:27:43.425Z,6.00
2022-12-01T02:30:50.554Z,6.00
2022-12-01T02:33:57.453Z,6.00
2022-12-01T02:37:09.372Z,6.00
2022-12-01T02:40:20.115Z,5.90
2022-12-01T02:43:28.293Z,6.00
2022-12-01T02:46:37.948Z,6.10
2022-12-01T02:49:46.271Z,6.10
2022-12-01T02:53:06.309Z,6.20
2022-12-01T02:56:15.867Z,6.20
2022-12-01T02:59:18.884Z,6.10
2022-12-01T03:02:33.997Z,6.10
2022-12-01T03:05:43.731Z,6.00
2022-12-01T03:08:52.887Z,6.00
2022-12-01T03:12:04.337Z,6.00
2022-12-01T03:15:14.102Z,6.00
2022-12-01T03:18:28.639Z,6.00
2022-12-01T03:21:36.695Z,6.00
2022-12-01T03:24:41.827Z,6.00
2022-12-01T03:28:19.169Z,6.10
2022-12-01T03:31:20.047Z,6.00
2022-12-01T03:34:30.512Z,6.00
2022-12-01T03:37:39.943Z,5.90
2022-12-01T03:40:44.244Z,6.10
2022-12-01T03:43:53.010Z,6.10
2022-12-01T03:46:59.482Z,5.90
2022-12-01T03:50:05.218Z,5.90
2022-12-01T03:53:14.025Z,5.90
2022-12-01T03:56:19.277Z,5.70
2022-12-01T03:59:24.796Z,5.70
2022-12-01T04:02:28.796Z,5.80
2022-12-01T04:05:34.285Z,5.80
2022-12-01T04:08:37.837Z,5.80
2022-12-01T04:11:58.363Z,5.80
2022-12-01T04:15:03.648Z,5.80
2022-12-01T04:18:06.852Z,5.70
2022-12-01T04:21:11.134Z,5.80
2022-12-01T04:24:14.346Z,5.80
2022-12-01T04:27:17.329Z,5.90
2022-12-01T04:30:20.332Z,5.90
2022-12-01T04:33:23.294Z,6.00
2022-12-01T04:36:30.490Z,5.90
2022-12-01T04:39:33.425Z,5.80
2022-12-01T04:42:36.700Z,5.80
2022-12-01T04:45:39.644Z,5.70
2022-12-01T04:48:43.221Z,5.70
2022-12-01T04:51:47.523Z,5.70
2022-12-01T04:54:50.448Z,5.80
2022-12-01T04:57:53.463Z,5.80
2022-12-01T05:00:56.460Z,5.80
2022-12-01T05:03:59.460Z,5.80
2022-12-01T05:07:03.737Z,5.80
2022-12-01T05:10:08.118Z,5.80
2022-12-01T05:13:11.071Z,5.80
2022-12-01T05:16:15.781Z,5.80
2022-12-01T05:19:36.239Z,5.80
2022-12-01T05:23:04.458Z,5.70
2022-12-01T05:26:04.809Z,5.70
2022-12-01T05:29:07.984Z,5.80
2022-12-01T05:32:10.918Z,5.80
2022-12-01T05:35:13.844Z,5.80
2022-12-01T05:38:18.829Z,5.80
2022-12-01T05:41:22.260Z,5.80
2022-12-01T05:44:25.177Z,5.90
2022-12-01T05:47:28.132Z,6.00
2022-12-01T05:50:32.437Z,5.80
2022-12-01T05:53:36.733Z,5.80
2022-12-01T05:56:39.685Z,5.90
2022-12-01T05:59:42.601Z,5.80
2022-12-01T06:02:45.849Z,5.80
2022-12-01T06:05:48.822Z,5.80
2022-12-01T06:08:53.108Z,5.80
2022-12-01T06:11:56.056Z,5.80
2022-12-01T06:14:58.987Z,5.70
2022-12-01T06:18:01.962Z,5.70
2022-12-01T06:21:06.593Z,5.80
2022-12-01T06:24:11.457Z,5.80
2022-12-01T06:27:14.442Z,5.90
2022-12-01T06:30:17.730Z,5.80
2022-12-01T06:33:20.723Z,5.80
2022-12-01T06:36:23.639Z,5.70
2022-12-01T06:39:27.920Z,5.80
2022-12-01T06:42:31.569Z,5.70
2022-12-01T06:45:34.619Z,5.70
2022-12-01T06:48:37.661Z,5.70
2022-12-01T06:51:40.716Z,5.70
2022-12-01T06:54:44.978Z,5.70
2022-12-01T06:57:48.297Z,5.60
2022-12-01T07:00:52.421Z,5.70
2022-12-01T07:03:55.765Z,5.70
2022-12-01T07:06:58.683Z,5.70
2022-12-01T07:10:02.942Z,5.70
2022-12-01T07:13:05.967Z,5.70
2022-12-01T07:16:10.002Z,5.70
2022-12-01T07:19:13.080Z,5.60
2022-12-01T07:22:16.816Z,5.70
2022-12-01T07:25:21.095Z,5.70
2022-12-01T07:28:24.072Z,5.70
2022-12-01T07:31:27.134Z,5.70
2022-12-01T07:34:30.155Z,5.80
2022-12-01T07:37:33.100Z,5.80
2022-12-01T07:40:37.410Z,5.70
2022-12-01T07:43:40.684Z,5.80
2022-12-01T07:46:43.697Z,5.90
2022-12-01T07:49:47.003Z,5.90
2022-12-01T07:52:50.701Z,5.80
2022-12-01T07:55:54.995Z,5.80
2022-12-01T07:58:57.987Z,5.80
2022-12-01T08:02:01.051Z,5.90
2022-12-01T08:05:04.359Z,5.90
2022-12-01T08:08:07.491Z,5.90
2022-12-01T08:11:15.067Z,5.80
2022-12-01T08:14:18.015Z,5.90
2022-12-01T08:17:21.278Z,5.90
2022-12-01T08:20:24.353Z,5.90
2022-12-01T08:23:27.418Z,5.80
2022-12-01T08:26:32.077Z,5.80
2022-12-01T08:29:36.483Z,5.80
2022-12-01T08:32:39.415Z,5.90
2022-12-01T08:35:42.390Z,5.90
2022-12-01T08:38:46.116Z,5.90
2022-12-01T08:41:50.383Z,5.90
2022-12-01T08:44:53.380Z,5.90
2022-12-01T08:47:58.748Z,5.80
2022-12-01T08:51:06.797Z,5.90
2022-12-01T08:54:12.642Z,5.90
2022-12-01T08:57:16.927Z,6.00
2022-12-01T09:00:20.149Z,6.10
2022-12-01T09:03:23.156Z,6.00
2022-12-01T09:06:26.126Z,6.10
2022-12-01T09:09:30.152Z,6.10
2022-12-01T09:12:34.450Z,6.10
2022-12-01T09:15:37.444Z,6.10
2022-12-01T09:18:40.756Z,6.20
2022-12-01T09:21:45.176Z,6.10
2022-12-01T09:24:48.140Z,6.10
2022-12-01T09:27:52.516Z,6.10
2022-12-01T09:30:55.480Z,6.20
2022-12-01T09:33:59.713Z,6.20
2022-12-01T09:37:02.653Z,6.00
2022-12-01T09:40:06.810Z,6.10
2022-12-01T09:43:18.639Z,6.10
2022-12-01T09:46:25.571Z,6.10
2022-12-01T09:49:43.451Z,6.10
2022-12-01T09:52:50.185Z,6.10
2022-12-01T09:55:54.566Z,6.10
2022-12-01T09:59:02.820Z,6.20
2022-12-01T10:02:38.526Z,6.20
2022-12-01T10:06:18.634Z,6.10
2022-12-01T10:09:21.743Z,6.00
2022-12-01T10:12:27.765Z,6.00
2022-12-01T10:15:44.096Z,6.20
2022-12-01T10:18:59.415Z,6.30
2022-12-01T10:22:34.708Z,6.30
2022-12-01T10:25:44.647Z,6.30
2022-12-01T10:29:02.144Z,6.00
2022-12-01T10:32:13.574Z,6.00
2022-12-01T10:35:18.326Z,6.10
2022-12-01T10:38:27.430Z,6.10
2022-12-01T10:41:34.697Z,5.90
2022-12-01T10:44:37.881Z,5.80
2022-12-01T10:48:08.990Z,5.70
2022-12-01T10:51:17.570Z,5.80
2022-12-01T10:54:21.585Z,5.80
2022-12-01T10:57:25.084Z,5.80
2022-12-01T11:03:58.981Z,5.70
2022-12-01T11:07:02.268Z,5.50
2022-12-01T11:10:17.545Z,5.50
2022-12-01T11:13:24.921Z,5.60
2022-12-01T11:16:45.166Z,5.70
2022-12-01T11:19:50.108Z,5.80
2022-12-01T11:22:53.288Z,5.70
2022-12-01T11:26:13.467Z,5.80
2022-12-01T11:29:28.522Z,5.90
2022-12-01T11:32:34.698Z,5.80
2022-12-01T11:35:39.345Z,5.70
2022-12-01T11:38:42.430Z,5.70
2022-12-01T11:41:45.432Z,5.70
2022-12-01T11:44:52.132Z,5.60
2022-12-01T11:48:05.456Z,5.60
2022-12-01T11:51:13.059Z,5.50
2022-12-01T11:54:19.305Z,5.60
2022-12-01T11:57:37.405Z,5.50
2022-12-01T12:00:46.836Z,5.50
2022-12-01T12:03:59.592Z,5.30
2022-12-01T12:07:11.282Z,5.40
2022-12-01T12:10:31.196Z,5.40
2022-12-01T12:13:51.561Z,5.50
2022-12-01T12:17:14.309Z,5.40
2022-12-01T12:20:37.263Z,5.50
2022-12-01T12:24:19.285Z,5.50
2022-12-01T12:27:33.143Z,5.40
2022-12-01T12:30:43.584Z,5.30
2022-12-01T12:34:12.921Z,5.20
2022-12-01T12:37:22.972Z,5.30
2022-12-01T12:40:53.259Z,5.30
2022-12-01T12:44:14.252Z,5.30
2022-12-01T12:47:28.517Z,5.20
2022-12-01T12:50:41.138Z,5.20
2022-12-01T12:53:50.524Z,5.10
2022-12-01T12:57:01.567Z,5.00
2022-12-01T13:00:08.786Z,5.10
2022-12-01T13:03:18.549Z,5.10
2022-12-01T13:06:27.852Z,5.10
2022-12-01T13:09:36.666Z,5.00
2022-12-01T13:12:50.165Z,5.10
2022-12-01T13:15:56.045Z,5.10
2022-12-01T13:19:04.923Z,5.00
2022-12-01T13:22:10.642Z,5.10
2022-12-01T13:25:16.418Z,5.20
2022-12-01T13:28:23.694Z,5.20
2022-12-01T13:31:26.822Z,5.20
2022-12-01T13:34:39.076Z,5.10
2022-12-01T13:37:42.054Z,5.10
2022-12-01T13:40:45.100Z,5.10
2022-12-01T13:43:55.477Z,5.20
2022-12-01T13:47:02.374Z,5.20
2022-12-01T13:50:55.005Z,5.20
2022-12-01T13:54:28.772Z,5.10
2022-12-01T13:57:33.263Z,5.10
2022-12-01T14:00:38.025Z,5.10
2022-12-01T14:03:42.284Z,5.20
2022-12-01T14:06:49.417Z,5.20
2022-12-01T14:09:54.351Z,5.20
2022-12-01T14:13:01.264Z,5.10
2022-12-01T14:16:06.394Z,5.10
2022-12-01T14:19:31.006Z,5.10
2022-12-01T14:22:37.016Z,5.00
2022-12-01T14:25:41.650Z,5.10
2022-12-01T14:29:18.342Z,5.00
2022-12-01T14:32:25.482Z,5.00
2022-12-01T14:35:28.590Z,5.10
2022-12-01T14:38:33.906Z,5.10
2022-12-01T14:41:44.608Z,5.00
2022-12-01T14:44:49.734Z,5.10
2022-12-01T14:48:02.892Z,5.00
2022-12-01T14:51:27.046Z,4.90
2022-12-01T14:54:33.535Z,4.90
2022-12-01T14:57:41.167Z,5.00
2022-12-01T15:00:57.286Z,4.90
2022-12-01T15:04:04.155Z,5.00
2022-12-01T15:07:08.029Z,5.20
2022-12-01T15:10:18.438Z,5.10
2022-12-01T15:13:24.439Z,5.00
2022-12-01T15:16:31.950Z,5.00
2022-12-01T15:19:39.277Z,5.10
2022-12-01T15:22:42.343Z,5.10
2022-12-01T15:25:47.282Z,5.00
2022-12-01T15:28:50.555Z,4.90
2022-12-01T15:31:55.996Z,4.80
2022-12-01T15:35:03.564Z,5.00
2022-12-01T15:38:07.547Z,5.00
2022-12-01T15:41:28.955Z,5.00
2022-12-01T15:44:35.054Z,4.90
2022-12-01T15:47:47.071Z,5.00
2022-12-01T15:51:02.853Z,4.90
2022-12-01T15:54:06.133Z,5.00
2022-12-01T15:57:09.197Z,4.90
2022-12-01T16:00:20.031Z,4.90
2022-12-01T16:03:23.048Z,5.00
2022-12-01T16:06:31.259Z,5.10
2022-12-01T16:09:37.009Z,5.20
2022-12-01T16:12:39.974Z,5.10
2022-12-01T16:15:44.176Z,5.00
2022-12-01T16:18:54.545Z,4.90
2022-12-01T16:22:02.846Z,4.90
2022-12-01T16:25:06.433Z,5.00
2022-12-01T16:28:23.066Z,4.80
2022-12-01T16:31:27.396Z,4.80
2022-12-01T16:34:45.987Z,4.70
2022-12-01T16:37:51.128Z,4.90
2022-12-01T16:40:56.393Z,4.90
2022-12-01T16:44:27.159Z,4.90
2022-12-01T16:47:24.271Z,4.90
2022-12-01T16:50:27.290Z,4.90
2022-12-01T16:53:32.018Z,4.90
2022-12-01T16:56:35.173Z,4.90
2022-12-01T16:59:38.230Z,4.90
2022-12-01T17:02:41.255Z,4.80
2022-12-01T17:05:44.277Z,4.80
2022-12-01T17:08:48.906Z,4.80
2022-12-01T17:11:51.876Z,4.80
2022-12-01T17:14:54.826Z,4.80
2022-12-01T17:17:57.786Z,4.70
2022-12-01T17:21:02.337Z,4.70
2022-12-01T17:24:07.995Z,4.70
2022-12-01T17:27:11.002Z,4.70
2022-12-01T17:30:14.429Z,4.60
2022-12-01T17:33:17.401Z,4.60
2022-12-01T17:36:20.462Z,4.60
2022-12-01T17:39:24.893Z,4.70
2022-12-01T17:42:27.953Z,4.70
2022-12-01T17:45:30.958Z,4.60
2022-12-01T17:48:37.252Z,4.50
2022-12-01T17:51:40.948Z,4.70
2022-12-01T17:54:45.267Z,4.70
2022-12-01T17:57:48.375Z,4.80
2022-12-01T18:00:52.079Z,4.90
2022-12-01T18:03:55.026Z,4.90
2022-12-01T18:06:58.299Z,4.80
2022-12-01T18:10:02.652Z,4.70
2022-12-01T18:13:05.687Z,4.60
2022-12-01T18:16:10.039Z,4.60
2022-12-01T18:19:13.738Z,4.60
2022-12-01T18:22:16.689Z,4.70
2022-12-01T18:25:21.010Z,4.80
2022-12-01T18:28:23.978Z,4.70
2022-12-01T18:31:27.859Z,4.50
2022-12-01T18:34:31.164Z,4.60
2022-12-01T18:37:35.536Z,4.50
2022-12-01T18:40:40.257Z,4.40
2022-12-01T18:43:43.984Z,4.40
2022-12-01T18:46:47.127Z,4.40
2022-12-01T18:49:50.154Z,4.30
2022-12-01T18:52:53.173Z,4.30
2022-12-01T18:55:57.734Z,4.30
2022-12-01T18:59:02.331Z,4.40
2022-12-01T19:02:05.484Z,4.40
2022-12-01T19:05:09.054Z,4.40
2022-12-01T19:08:12.092Z,4.50
2022-12-01T19:11:16.800Z,4.50
2022-12-01T19:14:20.135Z,4.50
2022-12-01T19:17:23.153Z,4.60
2022-12-01T19:20:26.166Z,4.50
2022-12-01T19:23:29.186Z,4.30
2022-12-01T19:26:33.494Z,4.50
2022-12-01T19:29:36.487Z,4.60
2022-12-01T19:32:40.140Z,4.70
2022-12-01T19:35:43.412Z,4.70
2022-12-01T19:38:46.938Z,4.70
2022-12-01T19:41:51.272Z,4.60
2022-12-01T19:44:54.382Z,4.50
2022-12-01T19:47:57.354Z,4.50
2022-12-01T19:51:00.751Z,4.50
2022-12-01T19:54:04.445Z,4.50
2022-12-01T19:57:08.774Z,4.40
2022-12-01T20:00:13.049Z,4.40
2022-12-01T20:03:16.012Z,4.30
2022-12-01T20:06:21.049Z,4.40
2022-12-01T20:09:24.081Z,4.50
2022-12-01T20:12:28.433Z,4.50
2022-12-01T20:15:33.969Z,4.40
2022-12-01T20:18:37.570Z,4.40
2022-12-01T20:21:43.053Z,4.30
2022-12-01T20:24:47.273Z,4.40
2022-12-01T20:27:51.735Z,4.30
2022-12-01T20:30:54.856Z,4.20
2022-12-01T20:34:00.129Z,4.30
2022-12-01T20:37:04.397Z,4.30
2022-12-01T20:40:08.662Z,4.20
2022-12-01T20:43:12.984Z,4.20
2022-12-01T20:46:16.514Z,4.20
2022-12-01T20:49:19.984Z,4.20
2022-12-01T20:52:22.988Z,4.20
2022-12-01T20:55:25.951Z,4.20
2022-12-01T20:58:33.257Z,4.20
2022-12-01T21:01:40.171Z,4.30
2022-12-01T21:04:43.321Z,4.20
2022-12-01T21:07:46.522Z,4.00
2022-12-01T21:10:49.509Z,4.20
2022-12-01T21:13:53.962Z,4.20
2022-12-01T21:17:01.616Z,4.10
2022-12-01T21:20:18.011Z,4.10
2022-12-01T21:23:20.998Z,4.20
2022-12-01T21:26:23.996Z,4.30
2022-12-01T21:29:29.953Z,4.10
2022-12-01T21:32:41.158Z,3.90
2022-12-01T21:35:46.679Z,3.70
2022-12-01T21:38:54.268Z,3.80
2022-12-01T21:42:07.821Z,3.90
2022-12-01T21:45:19.610Z,4.00
2022-12-01T21:48:23.978Z,4.00
2022-12-01T21:51:27.436Z,4.00
2022-12-01T21:54:30.871Z,4.00
2022-12-01T21:57:43.989Z,3.90
2022-12-01T22:00:48.510Z,4.00
2022-12-01T22:03:51.587Z,4.00
2022-12-01T22:06:56.068Z,3.90
2022-12-01T22:10:01.555Z,3.90
2022-12-01T22:13:10.642Z,3.90
2022-12-01T22:16:21.504Z,3.90
2022-12-01T22:19:31.279Z,3.90
2022-12-01T22:22:35.729Z,3.90
2022-12-01T22:25:38.707Z,3.90
2022-12-01T22:28:41.710Z,3.80
2022-12-01T22:31:45.997Z,3.90
2022-12-01T22:34:53.460Z,3.90
2022-12-01T22:38:10.943Z,3.90
2022-12-01T22:41:15.781Z,3.90
2022-12-01T22:44:19.350Z,4.00
2022-12-01T22:47:23.777Z,3.90
2022-12-01T22:50:29.628Z,3.80
2022-12-01T22:53:32.626Z,3.80
2022-12-01T22:56:38.928Z,3.80
2022-12-01T22:59:44.020Z,3.60
2022-12-01T23:02:50.441Z,3.70
2022-12-01T23:05:58.858Z,3.80
2022-12-01T23:09:02.757Z,3.90
2022-12-01T23:12:30.799Z,3.80
2022-12-01T23:15:36.368Z,3.80
2022-12-01T23:18:40.725Z,3.80
2022-12-01T23:21:43.673Z,3.80
2022-12-01T23:24:47.047Z,3.80
2022-12-01T23:27:52.000Z,3.80
2022-12-01T23:30:59.490Z,3.80
2022-12-01T23:34:03.850Z,3.80
2022-12-01T23:37:19.982Z,3.70
2022-12-01T23:40:32.198Z,3.80
2022-12-01T23:43:39.988Z,3.80
2022-12-01T23:46:43.388Z,3.80
2022-12-01T23:49:49.470Z,3.80
2022-12-01T23:52:52.816Z,3.80
2022-12-01T23:55:57.125Z,3.80
2022-12-01T23:59:02.223Z,3.70
